createdAt,value
2022-11-03T00:00:15.864Z,82.31
2022-11-03T00:03:01.828Z,82.36
2022-11-03T00:05:51.198Z,82.44
2022-11-03T00:08:25.325Z,82.57
2022-11-03T00:11:05.405Z,82.97
2022-11-03T00:13:38.563Z,82.74
2022-11-03T00:16:12.135Z,82.71
2022-11-03T00:18:47.072Z,83.07
2022-11-03T00:24:13.395Z,82.90
2022-11-03T00:26:45.844Z,83.29
2022-11-03T00:29:27.311Z,83.35
2022-11-03T00:31:59.264Z,83.35
2022-11-03T00:34:31.031Z,83.48
2022-11-03T00:37:02.897Z,83.49
2022-11-03T00:39:34.949Z,83.55
2022-11-03T00:42:09.528Z,83.54
2022-11-03T00:44:41.351Z,83.60
2022-11-03T00:47:13.208Z,83.48
2022-11-03T00:49:45.014Z,83.63
2022-11-03T00:52:18.890Z,83.74
2022-11-03T00:54:55.298Z,83.53
2022-11-03T00:57:42.422Z,83.63
2022-11-03T01:00:15.685Z,83.58
2022-11-03T01:02:47.490Z,83.67
2022-11-03T01:05:39.113Z,83.71
2022-11-03T01:08:11.218Z,83.50
2022-11-03T01:11:03.735Z,83.57
2022-11-03T01:13:35.631Z,83.84
2022-11-03T01:16:08.329Z,83.76
2022-11-03T01:18:40.115Z,83.71
2022-11-03T01:21:12.072Z,83.81
2022-11-03T01:23:47.586Z,83.99
2022-11-03T01:26:22.313Z,83.98
2022-11-03T01:28:55.342Z,83.85
2022-11-03T01:31:28.908Z,83.98
2022-11-03T01:34:00.901Z,83.67
2022-11-03T01:36:32.819Z,83.91
2022-11-03T01:39:07.486Z,83.74
2022-11-03T01:41:41.176Z,83.62
2022-11-03T01:44:32.337Z,83.87
2022-11-03T01:47:17.544Z,83.69
2022-11-03T01:49:54.726Z,83.74
2022-11-03T01:52:34.156Z,83.96
2022-11-03T01:55:10.379Z,83.90
2022-11-03T01:57:47.239Z,83.78
2022-11-03T02:00:19.437Z,83.77
2022-11-03T02:02:51.865Z,83.87
2022-11-03T02:05:27.323Z,83.72
2022-11-03T02:08:05.404Z,83.96
2022-11-03T02:10:38.676Z,83.67
2022-11-03T02:13:17.720Z,83.78
2022-11-03T02:15:51.988Z,83.73
2022-11-03T02:18:28.393Z,83.61
2022-11-03T02:21:10.133Z,83.58
2022-11-03T02:23:47.663Z,83.64
2022-11-03T02:26:19.925Z,83.82
2022-11-03T02:31:35.610Z,83.71
2022-11-03T02:34:13.888Z,83.59
2022-11-03T02:36:52.543Z,83.60
2022-11-03T02:39:30.947Z,83.57
2022-11-03T02:42:06.035Z,83.90
2022-11-03T02:44:47.773Z,83.92
2022-11-03T02:47:24.698Z,83.81
2022-11-03T02:49:56.974Z,83.76
2022-11-03T02:52:41.866Z,84.14
2022-11-03T02:55:21.878Z,84.17
2022-11-03T02:58:01.707Z,84.36
2022-11-03T03:00:40.402Z,84.42
2022-11-03T03:03:17.859Z,84.68
2022-11-03T03:05:51.980Z,84.68
2022-11-03T03:08:26.428Z,84.71
2022-11-03T03:11:01.821Z,84.63
2022-11-03T03:13:34.787Z,84.40
2022-11-03T03:16:13.104Z,84.25
2022-11-03T03:18:52.232Z,84.19
2022-11-03T03:21:27.693Z,84.43
2022-11-03T03:24:03.700Z,84.36
2022-11-03T03:26:43.093Z,84.23
2022-11-03T03:29:19.322Z,84.20
2022-11-03T03:31:56.835Z,84.10
2022-11-03T03:34:35.401Z,84.01
2022-11-03T03:37:11.677Z,83.91
2022-11-03T03:39:50.344Z,84.06
2022-11-03T03:42:26.151Z,84.05
2022-11-03T03:45:00.696Z,83.85
2022-11-03T03:47:35.474Z,83.98
2022-11-03T03:50:09.262Z,83.81
2022-11-03T03:52:41.443Z,83.79
2022-11-03T03:55:19.286Z,83.97
2022-11-03T03:57:54.280Z,83.90
2022-11-03T04:00:28.630Z,83.99
2022-11-03T04:03:02.665Z,84.47
2022-11-03T04:05:37.555Z,84.33
2022-11-03T04:08:09.805Z,84.36
2022-11-03T04:11:03.089Z,84.58
2022-11-03T04:17:18.548Z,84.48
2022-11-03T04:20:09.502Z,84.70
2022-11-03T04:22:41.285Z,84.56
2022-11-03T04:25:13.218Z,84.59
2022-11-03T04:27:45.657Z,84.84
2022-11-03T04:30:20.219Z,84.65
2022-11-03T04:32:54.118Z,84.72
2022-11-03T04:35:29.041Z,84.82
2022-11-03T04:38:04.835Z,84.88
2022-11-03T04:40:37.182Z,84.63
2022-11-03T04:43:13.298Z,84.65
2022-11-03T04:45:46.952Z,84.66
2022-11-03T04:48:22.247Z,84.72
2022-11-03T04:50:59.778Z,84.58
2022-11-03T04:53:34.217Z,84.52
2022-11-03T04:56:21.886Z,84.58
2022-11-03T04:58:54.871Z,84.44
2022-11-03T05:01:28.492Z,84.54
2022-11-03T05:04:03.351Z,84.69
2022-11-03T05:06:35.254Z,84.55
2022-11-03T05:09:17.002Z,84.50
2022-11-03T05:11:49.159Z,84.33
2022-11-03T05:14:26.939Z,84.45
2022-11-03T05:17:04.771Z,84.45
2022-11-03T05:19:40.180Z,84.46
2022-11-03T05:22:20.559Z,84.31
2022-11-03T05:24:57.002Z,84.46
2022-11-03T05:27:28.997Z,84.23
2022-11-03T05:30:02.833Z,84.45
2022-11-03T05:32:36.431Z,84.41
2022-11-03T05:35:20.513Z,84.64
2022-11-03T05:37:53.364Z,84.38
2022-11-03T05:40:27.100Z,84.39
2022-11-03T05:43:04.719Z,84.54
2022-11-03T05:45:40.153Z,84.67
2022-11-03T05:48:21.541Z,84.65
2022-11-03T05:50:53.734Z,84.56
2022-11-03T05:53:40.765Z,84.59
2022-11-03T05:56:18.077Z,84.68
2022-11-03T05:58:52.179Z,84.77
2022-11-03T06:01:32.250Z,84.81
2022-11-03T06:04:16.408Z,84.78
2022-11-03T06:06:55.515Z,84.91
2022-11-03T06:09:28.535Z,84.90
2022-11-03T06:12:02.856Z,84.96
2022-11-03T06:14:37.563Z,85.14
2022-11-03T06:17:23.044Z,85.17
2022-11-03T06:20:04.114Z,85.33
2022-11-03T06:22:39.922Z,85.21
2022-11-03T06:25:28.520Z,85.35
2022-11-03T06:28:05.881Z,85.37
2022-11-03T06:33:26.619Z,85.38
2022-11-03T06:36:03.234Z,85.37
2022-11-03T06:38:37.192Z,85.35
2022-11-03T06:41:19.222Z,85.28
2022-11-03T06:43:51.730Z,85.38
2022-11-03T06:46:27.579Z,85.50
2022-11-03T06:49:04.308Z,85.43
2022-11-03T06:51:38.199Z,85.60
2022-11-03T06:54:12.578Z,85.84
2022-11-03T06:56:44.689Z,85.75
2022-11-03T06:59:19.246Z,85.79
2022-11-03T07:01:55.659Z,85.86
2022-11-03T07:04:29.550Z,85.86
2022-11-03T07:07:04.147Z,85.72
2022-11-03T07:09:36.102Z,85.91
2022-11-03T07:12:19.638Z,86.02
2022-11-03T07:14:55.385Z,85.91
2022-11-03T07:17:28.477Z,86.09
2022-11-03T07:20:01.833Z,86.24
2022-11-03T07:22:34.924Z,86.11
2022-11-03T07:25:14.971Z,86.32
2022-11-03T07:27:47.518Z,86.28
2022-11-03T07:30:24.892Z,86.24
2022-11-03T07:33:01.616Z,86.19
2022-11-03T07:36:08.400Z,86.32
2022-11-03T07:38:31.315Z,86.52
2022-11-03T07:41:06.436Z,86.37
2022-11-03T07:43:39.007Z,86.58
2022-11-03T07:46:19.886Z,86.59
2022-11-03T07:48:56.898Z,86.48
2022-11-03T07:51:34.129Z,86.61
2022-11-03T07:54:17.152Z,86.71
2022-11-03T07:56:52.632Z,86.73
2022-11-03T07:59:28.934Z,86.78
2022-11-03T08:02:03.092Z,86.70
2022-11-03T08:04:37.160Z,86.91
2022-11-03T08:07:09.094Z,86.76
2022-11-03T08:09:40.903Z,86.74
2022-11-03T08:12:12.814Z,86.69
2022-11-03T08:14:44.799Z,86.74
2022-11-03T08:17:17.509Z,86.83
2022-11-03T08:19:49.479Z,87.01
2022-11-03T08:22:23.302Z,86.75
2022-11-03T08:24:55.559Z,86.71
2022-11-03T08:27:28.810Z,87.02
2022-11-03T08:30:03.584Z,86.93
2022-11-03T08:32:35.533Z,87.09
2022-11-03T08:35:09.106Z,86.97
2022-11-03T08:37:40.941Z,87.19
2022-11-03T08:40:16.869Z,87.23
2022-11-03T08:42:49.866Z,87.32
2022-11-03T08:45:22.457Z,87.27
2022-11-03T08:47:57.145Z,87.29
2022-11-03T08:50:30.358Z,87.06
2022-11-03T08:53:02.158Z,86.70
2022-11-03T08:55:34.205Z,86.44
2022-11-03T08:58:07.420Z,86.28
2022-11-03T09:00:41.887Z,85.56
2022-11-03T09:03:14.318Z,85.61
2022-11-03T09:05:46.284Z,85.65
2022-11-03T09:11:10.417Z,84.74
2022-11-03T09:13:42.591Z,84.32
2022-11-03T09:16:14.578Z,84.16
2022-11-03T09:18:46.701Z,83.63
2022-11-03T09:21:18.690Z,83.33
2022-11-03T09:23:50.632Z,83.31
2022-11-03T09:26:22.557Z,83.06
2022-11-03T09:28:54.454Z,83.08
2022-11-03T09:31:28.636Z,82.71
2022-11-03T09:34:03.037Z,81.84
2022-11-03T09:36:35.092Z,82.01
2022-11-03T09:39:07.094Z,81.80
2022-11-03T09:41:57.962Z,81.56
2022-11-03T09:44:31.369Z,81.57
2022-11-03T09:47:04.499Z,81.57
2022-11-03T09:49:37.359Z,81.27
2022-11-03T09:52:16.348Z,80.84
2022-11-03T09:54:48.499Z,80.75
2022-11-03T09:57:23.361Z,80.13
2022-11-03T09:59:55.972Z,80.23
2022-11-03T10:02:31.241Z,80.37
2022-11-03T10:05:10.925Z,79.90
2022-11-03T10:07:45.978Z,79.77
2022-11-03T10:10:22.603Z,79.34
2022-11-03T10:12:55.555Z,79.18
2022-11-03T10:15:29.370Z,79.21
2022-11-03T10:18:01.502Z,79.12
2022-11-03T10:20:33.930Z,78.78
2022-11-03T10:23:06.004Z,78.85
2022-11-03T10:25:42.968Z,78.75
2022-11-03T10:28:20.728Z,78.05
2022-11-03T10:31:11.197Z,78.14
2022-11-03T10:33:53.674Z,78.06
2022-11-03T10:36:29.886Z,77.52
2022-11-03T10:39:22.463Z,77.54
2022-11-03T10:42:00.217Z,76.70
2022-11-03T10:44:32.822Z,76.85
2022-11-03T10:47:06.898Z,76.50
2022-11-03T10:49:43.684Z,76.36
2022-11-03T10:52:23.592Z,76.09
2022-11-03T10:55:01.156Z,76.16
2022-11-03T10:57:34.809Z,75.94
2022-11-03T11:00:13.962Z,75.67
2022-11-03T11:02:51.906Z,75.84
2022-11-03T11:05:26.277Z,75.42
2022-11-03T11:08:00.264Z,75.41
2022-11-03T11:10:35.001Z,74.81
2022-11-03T11:13:29.715Z,74.36
2022-11-03T11:16:03.090Z,74.26
2022-11-03T11:19:11.965Z,74.19
2022-11-03T11:22:01.263Z,74.37
2022-11-03T11:25:01.323Z,74.04
2022-11-03T11:28:19.672Z,73.63
2022-11-03T11:31:00.669Z,73.27
2022-11-03T11:33:37.061Z,73.04
2022-11-03T11:36:26.000Z,72.99
2022-11-03T11:39:04.574Z,72.85
2022-11-03T11:42:11.063Z,73.12
2022-11-03T11:45:06.615Z,72.90
2022-11-03T11:47:50.942Z,72.92
2022-11-03T11:50:32.062Z,72.42
2022-11-03T11:53:16.471Z,72.72
2022-11-03T11:55:54.584Z,72.47
2022-11-03T11:58:38.160Z,72.48
2022-11-03T12:01:26.768Z,72.21
2022-11-03T12:04:02.011Z,72.08
2022-11-03T12:06:38.406Z,72.21
2022-11-03T12:09:16.792Z,72.23
2022-11-03T12:11:55.471Z,72.32
2022-11-03T12:14:36.581Z,72.11
2022-11-03T12:17:35.648Z,71.81
2022-11-03T12:20:46.500Z,71.73
2022-11-03T12:23:35.477Z,71.68
2022-11-03T12:26:15.151Z,71.99
2022-11-03T12:28:47.216Z,71.63
2022-11-03T12:31:20.509Z,71.85
2022-11-03T12:33:52.772Z,71.71
2022-11-03T12:36:24.791Z,71.65
2022-11-03T12:38:56.689Z,71.46
2022-11-03T12:41:28.777Z,71.52
2022-11-03T12:44:03.493Z,71.30
2022-11-03T12:46:35.605Z,71.25
2022-11-03T12:49:07.459Z,71.03
2022-11-03T12:51:39.329Z,71.05
2022-11-03T12:54:11.317Z,71.27
2022-11-03T12:56:44.833Z,70.84
2022-11-03T12:59:16.860Z,71.03
2022-11-03T13:01:48.921Z,71.07
2022-11-03T13:04:21.474Z,70.64
2022-11-03T13:06:53.660Z,70.74
2022-11-03T13:09:26.696Z,70.78
2022-11-03T13:12:16.102Z,70.32
2022-11-03T13:14:48.742Z,69.98
2022-11-03T13:17:20.747Z,70.55
2022-11-03T13:19:54.709Z,70.66
2022-11-03T13:22:27.093Z,70.37
2022-11-03T13:24:59.039Z,70.35
2022-11-03T13:27:31.154Z,69.95
2022-11-03T13:30:03.237Z,70.15
2022-11-03T13:32:35.834Z,70.51
2022-11-03T13:35:13.755Z,70.21
2022-11-03T13:37:46.451Z,70.27
2022-11-03T13:40:50.457Z,70.31
2022-11-03T13:43:11.952Z,70.26
2022-11-03T13:45:45.589Z,70.38
2022-11-03T13:51:17.894Z,70.70
2022-11-03T13:59:36.169Z,70.57
2022-11-03T14:05:06.956Z,70.60
2022-11-03T14:07:43.775Z,70.87
2022-11-03T14:10:15.628Z,70.86
2022-11-03T14:12:47.478Z,70.90
2022-11-03T14:15:19.402Z,70.58
2022-11-03T14:18:12.250Z,70.74
2022-11-03T14:20:44.221Z,71.15
2022-11-03T14:23:16.144Z,70.99
2022-11-03T14:26:00.398Z,70.89
2022-11-03T14:28:40.488Z,71.04
2022-11-03T14:31:14.682Z,71.14
2022-11-03T14:33:46.564Z,71.24
2022-11-03T14:36:19.804Z,71.14
2022-11-03T14:38:53.288Z,71.22
2022-11-03T14:41:43.100Z,71.11
2022-11-03T14:44:15.175Z,71.26
2022-11-03T14:46:50.919Z,71.48
2022-11-03T14:49:22.879Z,71.44
2022-11-03T14:51:58.184Z,71.67
2022-11-03T14:54:31.929Z,71.80
2022-11-03T14:57:04.001Z,71.81
2022-11-03T14:59:36.251Z,71.97
2022-11-03T15:02:08.414Z,72.11
2022-11-03T15:04:40.636Z,72.10
2022-11-03T15:07:12.737Z,72.25
2022-11-03T15:09:44.873Z,72.28
2022-11-03T15:12:19.261Z,72.42
2022-11-03T15:14:54.325Z,72.48
2022-11-03T15:17:27.421Z,72.61
2022-11-03T15:19:59.667Z,72.60
2022-11-03T15:25:28.852Z,72.67
2022-11-03T15:28:04.768Z,72.67
2022-11-03T15:30:39.335Z,72.84
2022-11-03T15:35:48.651Z,73.11
2022-11-03T15:38:20.831Z,73.23
2022-11-03T15:40:52.915Z,73.33
2022-11-03T15:43:24.901Z,73.28
2022-11-03T15:45:56.943Z,73.33
2022-11-03T15:48:34.325Z,73.48
2022-11-03T15:51:07.009Z,73.68
2022-11-03T15:53:39.468Z,73.84
2022-11-03T15:56:12.182Z,73.86
2022-11-03T15:58:44.264Z,73.87
2022-11-03T16:01:16.681Z,73.96
2022-11-03T16:03:49.047Z,74.09
2022-11-03T16:06:26.971Z,74.22
2022-11-03T16:09:07.320Z,74.23
2022-11-03T16:11:41.535Z,74.51
2022-11-03T16:14:13.642Z,74.58
2022-11-03T16:16:45.836Z,74.67
2022-11-03T16:19:18.360Z,74.87
2022-11-03T16:21:54.050Z,74.81
2022-11-03T16:24:34.842Z,74.94
2022-11-03T16:27:07.854Z,75.09
2022-11-03T16:29:39.878Z,75.15
2022-11-03T16:32:11.980Z,75.33
2022-11-03T16:34:44.969Z,75.45
2022-11-03T16:37:17.041Z,75.59
2022-11-03T16:39:49.263Z,75.72
2022-11-03T16:42:21.374Z,75.86
2022-11-03T16:44:53.900Z,75.95
2022-11-03T16:47:27.191Z,75.91
2022-11-03T16:49:59.172Z,76.02
2022-11-03T16:52:32.620Z,76.15
2022-11-03T16:55:04.915Z,76.24
2022-11-03T16:57:36.861Z,76.25
2022-11-03T17:00:13.760Z,76.32
2022-11-03T17:02:46.807Z,76.53
2022-11-03T17:05:21.338Z,76.62
2022-11-03T17:07:54.169Z,76.55
2022-11-03T17:10:28.203Z,76.67
2022-11-03T17:13:00.158Z,76.76
2022-11-03T17:15:32.274Z,76.85
2022-11-03T17:18:04.450Z,76.78
2022-11-03T17:20:39.359Z,76.92
2022-11-03T17:23:12.480Z,76.98
2022-11-03T17:25:45.320Z,77.13
2022-11-03T17:28:19.144Z,76.93
2022-11-03T17:30:51.571Z,77.04
2022-11-03T17:33:23.605Z,77.04
2022-11-03T17:35:55.715Z,76.94
2022-11-03T17:38:29.354Z,76.96
2022-11-03T17:41:01.418Z,76.97
2022-11-03T17:43:39.358Z,77.07
2022-11-03T17:46:14.597Z,77.03
2022-11-03T17:48:47.677Z,76.92
2022-11-03T17:51:19.677Z,77.01
2022-11-03T17:53:51.621Z,77.06
2022-11-03T17:56:31.243Z,76.99
2022-11-03T17:59:03.583Z,77.08
2022-11-03T18:01:36.263Z,77.25
2022-11-03T18:06:54.460Z,77.24
2022-11-03T18:09:29.529Z,77.46
2022-11-03T18:12:19.254Z,77.43
2022-11-03T18:14:51.176Z,77.59
2022-11-03T18:17:25.863Z,77.68
2022-11-03T18:19:58.062Z,77.70
2022-11-03T18:22:52.258Z,77.90
2022-11-03T18:25:49.474Z,78.00
2022-11-03T18:28:22.959Z,77.95
2022-11-03T18:30:58.836Z,78.12
2022-11-03T18:33:34.253Z,78.08
2022-11-03T18:36:14.122Z,78.30
2022-11-03T18:38:49.679Z,78.28
2022-11-03T18:41:39.544Z,78.06
2022-11-03T18:44:38.541Z,78.34
2022-11-03T18:47:11.938Z,78.13
2022-11-03T18:49:44.140Z,78.26
2022-11-03T18:52:18.574Z,78.47
2022-11-03T18:54:52.438Z,78.47
2022-11-03T18:57:28.499Z,78.47
2022-11-03T19:00:02.275Z,78.50
2022-11-03T19:02:39.153Z,78.81
2022-11-03T19:05:15.185Z,78.92
2022-11-03T19:07:49.855Z,78.91
2022-11-03T19:10:24.840Z,78.84
2022-11-03T19:12:58.184Z,79.16
2022-11-03T19:15:30.159Z,78.95
2022-11-03T19:18:05.387Z,79.19
2022-11-03T19:20:37.723Z,79.15
2022-11-03T19:23:11.088Z,79.23
2022-11-03T19:25:45.362Z,79.43
2022-11-03T19:28:21.561Z,79.26
2022-11-03T19:30:57.723Z,79.40
2022-11-03T19:33:34.353Z,79.39
2022-11-03T19:36:07.288Z,79.26
2022-11-03T19:38:40.897Z,79.20
2022-11-03T19:41:35.067Z,79.45
2022-11-03T19:44:12.544Z,79.63
2022-11-03T19:46:44.570Z,79.44
2022-11-03T19:49:16.831Z,79.52
2022-11-03T19:51:49.756Z,79.51
2022-11-03T19:54:23.222Z,79.51
2022-11-03T19:56:55.227Z,79.69
2022-11-03T19:59:27.242Z,79.90
2022-11-03T20:01:59.506Z,79.57
2022-11-03T20:04:47.587Z,79.87
2022-11-03T20:07:31.459Z,79.83
2022-11-03T20:10:04.592Z,80.05
2022-11-03T20:12:36.795Z,80.00
2022-11-03T20:15:19.474Z,79.83
2022-11-03T20:17:54.985Z,79.88
2022-11-03T20:20:35.816Z,80.09
2022-11-03T20:23:16.545Z,79.94
2022-11-03T20:25:49.217Z,79.82
2022-11-03T20:31:19.818Z,80.18
2022-11-03T20:33:53.680Z,80.38
2022-11-03T20:36:26.589Z,80.49
2022-11-03T20:38:59.700Z,80.32
2022-11-03T20:41:32.306Z,80.41
2022-11-03T20:44:04.256Z,80.29
2022-11-03T20:46:36.454Z,80.21
2022-11-03T20:49:09.484Z,80.03
2022-11-03T20:51:44.605Z,80.36
2022-11-03T20:54:18.780Z,80.29
2022-11-03T20:56:51.158Z,80.40
2022-11-03T20:59:26.709Z,80.38
2022-11-03T21:01:59.807Z,80.18
2022-11-03T21:04:33.693Z,80.48
2022-11-03T21:07:08.718Z,80.31
2022-11-03T21:09:42.239Z,80.14
2022-11-03T21:12:15.685Z,80.29
2022-11-03T21:15:01.734Z,80.30
2022-11-03T21:17:51.372Z,80.40
2022-11-03T21:20:23.203Z,80.37
2022-11-03T21:22:55.167Z,80.28
2022-11-03T21:25:29.832Z,80.29
2022-11-03T21:28:01.860Z,80.20
2022-11-03T21:30:33.869Z,80.28
2022-11-03T21:33:05.850Z,80.44
2022-11-03T21:35:38.347Z,80.41
2022-11-03T21:38:11.373Z,80.31
2022-11-03T21:40:52.372Z,80.51
2022-11-03T21:43:50.160Z,80.37
2022-11-03T21:46:24.431Z,80.28
2022-11-03T21:49:14.202Z,80.34
2022-11-03T21:51:46.288Z,80.29
2022-11-03T21:54:18.550Z,80.33
2022-11-03T21:56:51.103Z,80.51
2022-11-03T21:59:23.334Z,80.17
2022-11-03T22:01:57.976Z,80.26
2022-11-03T22:04:30.259Z,80.19
2022-11-03T22:07:02.836Z,79.94
2022-11-03T22:09:35.811Z,79.89
2022-11-03T22:12:10.236Z,80.05
2022-11-03T22:14:56.451Z,79.95
2022-11-03T22:17:31.220Z,80.15
2022-11-03T22:20:20.642Z,80.22
2022-11-03T22:23:10.414Z,80.03
2022-11-03T22:26:00.262Z,80.08
2022-11-03T22:28:32.702Z,80.10
2022-11-03T22:31:27.485Z,80.02
2022-11-03T22:34:17.404Z,80.13
2022-11-03T22:36:49.399Z,80.35
2022-11-03T22:39:39.070Z,80.15
2022-11-03T22:42:30.357Z,80.21
2022-11-03T22:45:19.868Z,80.16
2022-11-03T22:47:57.726Z,80.03
2022-11-03T22:50:32.016Z,79.97
2022-11-03T22:53:24.149Z,80.13
2022-11-03T22:55:56.219Z,80.12
2022-11-03T22:58:30.618Z,80.14
2022-11-03T23:01:07.308Z,80.27
2022-11-03T23:03:41.315Z,80.07
2022-11-03T23:06:15.560Z,79.99
2022-11-03T23:08:49.349Z,79.93
2022-11-03T23:11:26.414Z,79.94
2022-11-03T23:13:59.853Z,79.66
2022-11-03T23:19:40.273Z,79.60
2022-11-03T23:22:12.584Z,79.62
2022-11-03T23:25:02.665Z,79.63
2022-11-03T23:27:34.655Z,79.62
2022-11-03T23:30:08.617Z,79.61
2022-11-03T23:32:43.521Z,79.43
2022-11-03T23:35:17.923Z,79.34
2022-11-03T23:37:49.847Z,79.44
2022-11-03T23:40:24.310Z,79.53
2022-11-03T23:42:56.607Z,79.61
2022-11-03T23:45:45.912Z,79.52
2022-11-03T23:48:35.453Z,79.26
2022-11-03T23:51:09.774Z,79.24
2022-11-03T23:53:42.045Z,79.22
2022-11-03T23:56:33.330Z,79.22
2022-11-03T23:59:06.807Z,78.99
